Roanoke, VA (24037)

8:32 PM EDT on October 25, 2014 (GMT -0400)
Fallon Park ES | Change Station
CLOSE
Current Station
Personal Weather Station
Location: Roanoke, VA
Elevation: 932 ft
Nearby Weather Stations
Active Advisory: Special Statement

Elev 932 ft 37.28 °N, 79.91 °W | Updated 2 minutes ago

Clear
Clear
66.4 °F
Feels Like 66.4 °F
N
6.0
Wind Variable Wind from East
Gusts 7.0 mph

Today
High -- | Low -- °F
--% Chance of Precip.
Yesterday
High -- | Low -- °F
Precip. -- in
7:37 AM 6:29 PM
Waxing Crescent, 5% visible
Pressure 29.88 in
Visibility 10.0 miles
Clouds Few 6000 ft
Dew Point 49 °F
Humidity 54%
Rainfall 6.29 in
Snow Depth Not available.
UV 0 out of 12
Pollen 1.60 out of 12
Ozone Good
PM2.5 Good
Flu Activity Sporadic
METAR KROA 252354Z 30012G19KT 10SM FEW060 19/08 A2989 RMK AO2 SLP119 T01890078 10233 20183 55004

More Conditions Fewer Conditions

Pressure 29.88 in
Visibility 10.0 miles
Clouds Few 6000 ft
Dew Point 49 °F
Humidity 54%
Rainfall 6.29 in
Snow Depth Not available.
UV 0 out of 12
Pollen 1.60 out of 12
Ozone Good
PM2.5 Good
Flu Activity Sporadic
METAR KROA 252354Z 30012G19KT 10SM FEW060 19/08 A2989 RMK AO2 SLP119 T01890078 10233 20183 55004

More Conditions Fewer Conditions

10-Day Weather Forecast

Almanac

Astronomy

Oct. 25, 2014 Rise Set
Actual Time 7:37 AM EDT 6:29 PM EDT
Civil Twilight 7:10 AM EDT 6:56 PM EDT
Nautical Twilight 6:40 AM EDT 7:26 PM EDT
Astronomical Twilight 6:09 AM EDT 7:57 PM EDT
Moon 9:12 AM EDT (10/25) 7:53 PM EDT (10/25)
Length of Visible Light 11h 45m
Length of Day
10h 52m
Tomorrow will be 2m 12s shorter.
Waxing Crescent, 5% of the Moon is Illuminated
Today
Waxing Crescent
Oct 30
First Quarter
Nov 6
Full
Nov 14
Last Quarter
Nov 22
New

Today's Extremes

State Highs State Lows

Community

WunderPhotos

Upload Photos

1,765,052 photos uploaded!

Nearby

Air Quality

  Air Quality AQ Index Pollutant
Yesterday Good
OZONE
Yesterday Good
PM2.5
Current Good
OZONE
Current Good
PM2.5
Saturday Good
PM2.5
Sunday Good
PM2.5
Monday Good
PM2.5

Snow Depth

Station Depth Elevation
No new snow has been reported.

Earthquake Activity

City Distance Mag. Time & Date
No recent earthquake activity has been reported nearby.
Minimum magnitude displayed is 2.5.

Coastal Water Temperatures

Place Temperature
No Stations Reporting

Nearby Weather Stations